sensor_id;sensor_type;location;lat;lon;timestamp;P1;durP1;ratioP1;P2;durP2;ratioP2
25854;SDS011;13680;49.936;11.344;2022-09-09T00:02:38;4.50;;;1.50;;
25854;SDS011;13680;49.936;11.344;2022-09-09T00:04:49;2.90;;;1.40;;
25854;SDS011;13680;49.936;11.344;2022-09-09T00:07:36;5.07;;;1.67;;
25854;SDS011;13680;49.936;11.344;2022-09-09T00:13:13;5.63;;;1.30;;
25854;SDS011;13680;49.936;11.344;2022-09-09T00:15:49;4.72;;;1.63;;
25854;SDS011;13680;49.936;11.344;2022-09-09T00:18:24;3.10;;;1.63;;
25854;SDS011;13680;49.936;11.344;2022-09-09T00:20:58;3.38;;;1.30;;
25854;SDS011;13680;49.936;11.344;2022-09-09T00:26:14;2.28;;;1.38;;
25854;SDS011;13680;49.936;11.344;2022-09-09T00:31:32;4.70;;;1.52;;
25854;SDS011;13680;49.936;11.344;2022-09-09T00:33:59;3.08;;;1.27;;
25854;SDS011;13680;49.936;11.344;2022-09-09T00:36:33;2.08;;;1.30;;
25854;SDS011;13680;49.936;11.344;2022-09-09T00:39:01;5.20;;;1.20;;
25854;SDS011;13680;49.936;11.344;2022-09-09T00:41:35;2.95;;;1.42;;
25854;SDS011;13680;49.936;11.344;2022-09-09T00:44:25;3.28;;;1.30;;
25854;SDS011;13680;49.936;11.344;2022-09-09T00:47:09;3.72;;;1.38;;
25854;SDS011;13680;49.936;11.344;2022-09-09T00:49:55;2.38;;;1.30;;
25854;SDS011;13680;49.936;11.344;2022-09-09T00:56:01;4.63;;;1.30;;
25854;SDS011;13680;49.936;11.344;2022-09-09T00:58:51;4.00;;;1.20;;
25854;SDS011;13680;49.936;11.344;2022-09-09T01:01:25;6.25;;;1.15;;
25854;SDS011;13680;49.936;11.344;2022-09-09T01:03:54;1.85;;;1.17;;
25854;SDS011;13680;49.936;11.344;2022-09-09T01:06:30;3.03;;;1.20;;
25854;SDS011;13680;49.936;11.344;2022-09-09T01:09:05;6.13;;;1.50;;
25854;SDS011;13680;49.936;11.344;2022-09-09T01:17:44;5.43;;;1.10;;
25854;SDS011;13680;49.936;11.344;2022-09-09T01:20:17;2.42;;;1.30;;
25854;SDS011;13680;49.936;11.344;2022-09-09T01:22:53;6.28;;;1.92;;
25854;SDS011;13680;49.936;11.344;2022-09-09T01:28:08;4.43;;;1.80;;
25854;SDS011;13680;49.936;11.344;2022-09-09T01:30:39;4.75;;;1.80;;
25854;SDS011;13680;49.936;11.344;2022-09-09T01:33:07;1.92;;;1.30;;
25854;SDS011;13680;49.936;11.344;2022-09-09T01:38:15;4.72;;;1.40;;
25854;SDS011;13680;49.936;11.344;2022-09-09T01:40:42;2.50;;;1.50;;
25854;SDS011;13680;49.936;11.344;2022-09-09T01:43:08;4.78;;;1.55;;
25854;SDS011;13680;49.936;11.344;2022-09-09T01:45:34;6.22;;;2.22;;
25854;SDS011;13680;49.936;11.344;2022-09-09T01:48:00;3.20;;;1.55;;
25854;SDS011;13680;49.936;11.344;2022-09-09T01:50:27;3.25;;;1.67;;
25854;SDS011;13680;49.936;11.344;2022-09-09T01:52:53;5.45;;;1.85;;
25854;SDS011;13680;49.936;11.344;2022-09-09T01:55:28;3.92;;;1.80;;
25854;SDS011;13680;49.936;11.344;2022-09-09T01:58:06;6.47;;;1.58;;
25854;SDS011;13680;49.936;11.344;2022-09-09T02:03:57;3.97;;;1.27;;
25854;SDS011;13680;49.936;11.344;2022-09-09T02:06:48;4.07;;;1.40;;
25854;SDS011;13680;49.936;11.344;2022-09-09T02:09:13;3.10;;;1.70;;
25854;SDS011;13680;49.936;11.344;2022-09-09T02:11:43;3.42;;;1.48;;
25854;SDS011;13680;49.936;11.344;2022-09-09T02:14:13;1.67;;;1.30;;
25854;SDS011;13680;49.936;11.344;2022-09-09T02:16:53;2.90;;;1.50;;
25854;SDS011;13680;49.936;11.344;2022-09-09T02:19:43;4.00;;;1.70;;
25854;SDS011;13680;49.936;11.344;2022-09-09T02:22:14;4.13;;;1.48;;
25854;SDS011;13680;49.936;11.344;2022-09-09T02:24:42;3.13;;;1.38;;
25854;SDS011;13680;49.936;11.344;2022-09-09T02:27:09;4.07;;;1.30;;
25854;SDS011;13680;49.936;11.344;2022-09-09T02:29:41;3.20;;;1.38;;
25854;SDS011;13680;49.936;11.344;2022-09-09T02:32:14;5.32;;;1.50;;
25854;SDS011;13680;49.936;11.344;2022-09-09T02:34:43;3.63;;;1.50;;
25854;SDS011;13680;49.936;11.344;2022-09-09T02:37:13;3.33;;;1.40;;
25854;SDS011;13680;49.936;11.344;2022-09-09T02:39:42;6.38;;;1.40;;
25854;SDS011;13680;49.936;11.344;2022-09-09T02:42:08;4.60;;;1.45;;
25854;SDS011;13680;49.936;11.344;2022-09-09T02:44:33;3.95;;;1.55;;
25854;SDS011;13680;49.936;11.344;2022-09-09T02:47:09;2.95;;;1.20;;
25854;SDS011;13680;49.936;11.344;2022-09-09T02:52:33;2.15;;;1.42;;
25854;SDS011;13680;49.936;11.344;2022-09-09T02:57:59;2.88;;;1.10;;
25854;SDS011;13680;49.936;11.344;2022-09-09T03:00:27;2.95;;;1.50;;
25854;SDS011;13680;49.936;11.344;2022-09-09T03:02:53;2.17;;;1.50;;
25854;SDS011;13680;49.936;11.344;2022-09-09T03:05:19;3.80;;;1.67;;
25854;SDS011;13680;49.936;11.344;2022-09-09T03:07:45;7.22;;;3.00;;
25854;SDS011;13680;49.936;11.344;2022-09-09T03:10:11;3.95;;;1.40;;
25854;SDS011;13680;49.936;11.344;2022-09-09T03:12:36;2.50;;;1.50;;
25854;SDS011;13680;49.936;11.344;2022-09-09T03:15:02;4.90;;;1.48;;
25854;SDS011;13680;49.936;11.344;2022-09-09T03:17:27;4.60;;;2.25;;
25854;SDS011;13680;49.936;11.344;2022-09-09T03:19:53;5.78;;;1.92;;
25854;SDS011;13680;49.936;11.344;2022-09-09T03:22:20;3.45;;;1.63;;
25854;SDS011;13680;49.936;11.344;2022-09-09T03:24:46;2.53;;;1.50;;
25854;SDS011;13680;49.936;11.344;2022-09-09T03:27:11;7.68;;;1.83;;
25854;SDS011;13680;49.936;11.344;2022-09-09T03:29:39;3.30;;;1.55;;
25854;SDS011;13680;49.936;11.344;2022-09-09T03:32:05;4.88;;;1.38;;
25854;SDS011;13680;49.936;11.344;2022-09-09T03:34:30;4.43;;;1.60;;
25854;SDS011;13680;49.936;11.344;2022-09-09T03:36:56;4.22;;;1.55;;
25854;SDS011;13680;49.936;11.344;2022-09-09T03:39:21;6.65;;;2.30;;
25854;SDS011;13680;49.936;11.344;2022-09-09T03:41:47;4.75;;;1.70;;
25854;SDS011;13680;49.936;11.344;2022-09-09T03:44:13;3.05;;;1.60;;
25854;SDS011;13680;49.936;11.344;2022-09-09T03:46:39;8.77;;;2.15;;
25854;SDS011;13680;49.936;11.344;2022-09-09T03:49:04;3.25;;;1.70;;
25854;SDS011;13680;49.936;11.344;2022-09-09T03:51:29;3.08;;;1.77;;
25854;SDS011;13680;49.936;11.344;2022-09-09T03:53:55;3.42;;;2.00;;
25854;SDS011;13680;49.936;11.344;2022-09-09T03:56:23;6.85;;;2.28;;
25854;SDS011;13680;49.936;11.344;2022-09-09T03:58:48;7.38;;;1.67;;
25854;SDS011;13680;49.936;11.344;2022-09-09T04:01:13;3.35;;;2.03;;
25854;SDS011;13680;49.936;11.344;2022-09-09T04:03:39;4.30;;;1.90;;
25854;SDS011;13680;49.936;11.344;2022-09-09T04:06:06;6.05;;;1.80;;
25854;SDS011;13680;49.936;11.344;2022-09-09T04:08:33;2.45;;;1.67;;
25854;SDS011;13680;49.936;11.344;2022-09-09T04:10:59;3.40;;;1.70;;
25854;SDS011;13680;49.936;11.344;2022-09-09T04:13:26;5.57;;;1.60;;
25854;SDS011;13680;49.936;11.344;2022-09-09T04:15:53;5.70;;;1.73;;
25854;SDS011;13680;49.936;11.344;2022-09-09T04:18:20;4.65;;;1.67;;
25854;SDS011;13680;49.936;11.344;2022-09-09T04:20:49;3.67;;;1.75;;
25854;SDS011;13680;49.936;11.344;2022-09-09T04:23:16;6.68;;;2.00;;
25854;SDS011;13680;49.936;11.344;2022-09-09T04:25:53;4.68;;;1.75;;
25854;SDS011;13680;49.936;11.344;2022-09-09T04:28:21;5.35;;;1.50;;
25854;SDS011;13680;49.936;11.344;2022-09-09T04:30:48;6.90;;;1.85;;
25854;SDS011;13680;49.936;11.344;2022-09-09T04:33:14;4.45;;;1.60;;
25854;SDS011;13680;49.936;11.344;2022-09-09T04:35:44;2.95;;;1.55;;
25854;SDS011;13680;49.936;11.344;2022-09-09T04:38:12;2.53;;;1.55;;
25854;SDS011;13680;49.936;11.344;2022-09-09T04:40:37;3.45;;;1.88;;
25854;SDS011;13680;49.936;11.344;2022-09-09T04:43:08;6.25;;;1.90;;
25854;SDS011;13680;49.936;11.344;2022-09-09T04:45:34;5.40;;;1.55;;
25854;SDS011;13680;49.936;11.344;2022-09-09T04:48:00;11.20;;;2.30;;
25854;SDS011;13680;49.936;11.344;2022-09-09T04:50:25;4.47;;;1.67;;
25854;SDS011;13680;49.936;11.344;2022-09-09T04:52:51;2.72;;;1.40;;
25854;SDS011;13680;49.936;11.344;2022-09-09T04:55:16;5.10;;;2.10;;
25854;SDS011;13680;49.936;11.344;2022-09-09T04:57:41;4.63;;;1.98;;
25854;SDS011;13680;49.936;11.344;2022-09-09T05:00:07;6.28;;;1.98;;
25854;SDS011;13680;49.936;11.344;2022-09-09T05:02:36;4.53;;;1.88;;
25854;SDS011;13680;49.936;11.344;2022-09-09T05:05:02;5.97;;;1.98;;
25854;SDS011;13680;49.936;11.344;2022-09-09T05:07:28;4.60;;;1.92;;
25854;SDS011;13680;49.936;11.344;2022-09-09T05:09:54;6.20;;;1.92;;
25854;SDS011;13680;49.936;11.344;2022-09-09T05:12:19;4.45;;;2.03;;
25854;SDS011;13680;49.936;11.344;2022-09-09T05:14:44;5.07;;;1.70;;
25854;SDS011;13680;49.936;11.344;2022-09-09T05:17:10;3.25;;;1.67;;
25854;SDS011;13680;49.936;11.344;2022-09-09T05:19:36;7.18;;;1.75;;
25854;SDS011;13680;49.936;11.344;2022-09-09T05:22:02;3.03;;;1.77;;
25854;SDS011;13680;49.936;11.344;2022-09-09T05:24:27;2.92;;;1.55;;
25854;SDS011;13680;49.936;11.344;2022-09-09T05:26:53;4.20;;;1.77;;
25854;SDS011;13680;49.936;11.344;2022-09-09T05:29:18;5.70;;;2.17;;
25854;SDS011;13680;49.936;11.344;2022-09-09T05:31:44;6.18;;;1.73;;
25854;SDS011;13680;49.936;11.344;2022-09-09T05:34:12;5.45;;;2.10;;
25854;SDS011;13680;49.936;11.344;2022-09-09T05:36:38;5.00;;;1.95;;
25854;SDS011;13680;49.936;11.344;2022-09-09T05:39:03;6.75;;;2.63;;
25854;SDS011;13680;49.936;11.344;2022-09-09T05:41:29;7.63;;;2.13;;
25854;SDS011;13680;49.936;11.344;2022-09-09T05:43:54;6.72;;;2.30;;
25854;SDS011;13680;49.936;11.344;2022-09-09T05:46:20;4.18;;;1.85;;
25854;SDS011;13680;49.936;11.344;2022-09-09T05:48:48;5.03;;;2.15;;
25854;SDS011;13680;49.936;11.344;2022-09-09T05:51:19;4.30;;;1.95;;
25854;SDS011;13680;49.936;11.344;2022-09-09T05:53:49;5.10;;;2.08;;
25854;SDS011;13680;49.936;11.344;2022-09-09T05:56:24;3.33;;;1.60;;
25854;SDS011;13680;49.936;11.344;2022-09-09T05:58:51;7.20;;;1.97;;
25854;SDS011;13680;49.936;11.344;2022-09-09T06:01:19;4.13;;;1.98;;
25854;SDS011;13680;49.936;11.344;2022-09-09T06:03:49;3.03;;;1.60;;
25854;SDS011;13680;49.936;11.344;2022-09-09T06:06:17;4.30;;;1.67;;
25854;SDS011;13680;49.936;11.344;2022-09-09T06:08:47;4.82;;;1.52;;
25854;SDS011;13680;49.936;11.344;2022-09-09T06:11:19;4.22;;;1.80;;
25854;SDS011;13680;49.936;11.344;2022-09-09T06:13:49;2.58;;;1.42;;
25854;SDS011;13680;49.936;11.344;2022-09-09T06:16:19;3.47;;;1.75;;
25854;SDS011;13680;49.936;11.344;2022-09-09T06:18:45;5.55;;;2.00;;
25854;SDS011;13680;49.936;11.344;2022-09-09T06:21:15;8.20;;;1.60;;
25854;SDS011;13680;49.936;11.344;2022-09-09T06:23:41;3.13;;;1.30;;
25854;SDS011;13680;49.936;11.344;2022-09-09T06:26:09;5.53;;;1.42;;
25854;SDS011;13680;49.936;11.344;2022-09-09T06:28:36;3.65;;;1.60;;
25854;SDS011;13680;49.936;11.344;2022-09-09T06:31:11;5.63;;;1.70;;
25854;SDS011;13680;49.936;11.344;2022-09-09T06:33:39;3.83;;;1.15;;
25854;SDS011;13680;49.936;11.344;2022-09-09T06:36:27;4.53;;;1.20;;
25854;SDS011;13680;49.936;11.344;2022-09-09T06:38:56;5.28;;;1.52;;
25854;SDS011;13680;49.936;11.344;2022-09-09T06:41:23;2.22;;;1.15;;
25854;SDS011;13680;49.936;11.344;2022-09-09T06:43:51;4.38;;;1.23;;
25854;SDS011;13680;49.936;11.344;2022-09-09T06:48:43;10.00;;;3.30;;
25854;SDS011;13680;49.936;11.344;2022-09-09T06:53:37;8.40;;;3.00;;
25854;SDS011;13680;49.936;11.344;2022-09-09T06:58:39;6.88;;;2.28;;
25854;SDS011;13680;49.936;11.344;2022-09-09T07:01:10;5.90;;;1.75;;
25854;SDS011;13680;49.936;11.344;2022-09-09T07:03:37;3.50;;;1.70;;
25854;SDS011;13680;49.936;11.344;2022-09-09T07:06:04;4.53;;;1.60;;
25854;SDS011;13680;49.936;11.344;2022-09-09T07:08:29;4.60;;;1.60;;
25854;SDS011;13680;49.936;11.344;2022-09-09T07:11:01;7.20;;;1.60;;
25854;SDS011;13680;49.936;11.344;2022-09-09T07:13:31;5.45;;;1.63;;
25854;SDS011;13680;49.936;11.344;2022-09-09T07:16:30;7.30;;;1.05;;
25854;SDS011;13680;49.936;11.344;2022-09-09T07:18:49;6.47;;;1.55;;
25854;SDS011;13680;49.936;11.344;2022-09-09T07:21:16;6.43;;;1.17;;
25854;SDS011;13680;49.936;11.344;2022-09-09T07:23:43;8.45;;;1.38;;
25854;SDS011;13680;49.936;11.344;2022-09-09T07:26:15;3.35;;;1.48;;
25854;SDS011;13680;49.936;11.344;2022-09-09T07:28:44;3.67;;;1.13;;
25854;SDS011;13680;49.936;11.344;2022-09-09T07:31:14;6.70;;;1.40;;
25854;SDS011;13680;49.936;11.344;2022-09-09T07:33:41;2.60;;;0.90;;
25854;SDS011;13680;49.936;11.344;2022-09-09T07:36:12;5.13;;;1.58;;
25854;SDS011;13680;49.936;11.344;2022-09-09T07:41:06;4.32;;;1.02;;
25854;SDS011;13680;49.936;11.344;2022-09-09T07:43:37;3.53;;;1.20;;
25854;SDS011;13680;49.936;11.344;2022-09-09T07:46:03;6.30;;;1.20;;
25854;SDS011;13680;49.936;11.344;2022-09-09T07:48:29;2.65;;;1.15;;
25854;SDS011;13680;49.936;11.344;2022-09-09T07:53:31;4.63;;;1.30;;
25854;SDS011;13680;49.936;11.344;2022-09-09T07:56:01;4.13;;;1.50;;
25854;SDS011;13680;49.936;11.344;2022-09-09T07:58:30;2.47;;;0.90;;
25854;SDS011;13680;49.936;11.344;2022-09-09T08:00:55;2.13;;;1.00;;
25854;SDS011;13680;49.936;11.344;2022-09-09T08:03:22;4.38;;;1.20;;
25854;SDS011;13680;49.936;11.344;2022-09-09T08:05:48;8.18;;;1.48;;
25854;SDS011;13680;49.936;11.344;2022-09-09T08:08:14;3.03;;;1.25;;
25854;SDS011;13680;49.936;11.344;2022-09-09T08:10:41;7.20;;;1.60;;
25854;SDS011;13680;49.936;11.344;2022-09-09T08:13:08;2.38;;;0.93;;
25854;SDS011;13680;49.936;11.344;2022-09-09T08:15:34;3.60;;;0.80;;
25854;SDS011;13680;49.936;11.344;2022-09-09T08:17:59;2.42;;;0.80;;
25854;SDS011;13680;49.936;11.344;2022-09-09T08:20:25;2.65;;;0.85;;
25854;SDS011;13680;49.936;11.344;2022-09-09T08:22:51;3.63;;;0.60;;
25854;SDS011;13680;49.936;11.344;2022-09-09T08:25:16;1.98;;;0.90;;
25854;SDS011;13680;49.936;11.344;2022-09-09T08:27:41;1.92;;;0.80;;
25854;SDS011;13680;49.936;11.344;2022-09-09T08:30:07;3.60;;;0.77;;
25854;SDS011;13680;49.936;11.344;2022-09-09T08:32:32;5.65;;;0.98;;
25854;SDS011;13680;49.936;11.344;2022-09-09T08:35:00;3.55;;;0.80;;
25854;SDS011;13680;49.936;11.344;2022-09-09T08:37:25;4.03;;;0.80;;
25854;SDS011;13680;49.936;11.344;2022-09-09T08:39:50;4.68;;;1.00;;
25854;SDS011;13680;49.936;11.344;2022-09-09T08:42:35;2.85;;;0.80;;
25854;SDS011;13680;49.936;11.344;2022-09-09T08:45:14;4.22;;;1.08;;
25854;SDS011;13680;49.936;11.344;2022-09-09T08:50:25;2.97;;;1.10;;
25854;SDS011;13680;49.936;11.344;2022-09-09T08:55:47;4.20;;;0.77;;
25854;SDS011;13680;49.936;11.344;2022-09-09T08:58:16;4.57;;;1.23;;
25854;SDS011;13680;49.936;11.344;2022-09-09T09:01:09;2.97;;;0.93;;
25854;SDS011;13680;49.936;11.344;2022-09-09T09:06:59;5.28;;;1.20;;
25854;SDS011;13680;49.936;11.344;2022-09-09T09:12:27;4.75;;;0.90;;
25854;SDS011;13680;49.936;11.344;2022-09-09T09:14:57;2.70;;;0.82;;
25854;SDS011;13680;49.936;11.344;2022-09-09T09:17:25;6.65;;;1.00;;
25854;SDS011;13680;49.936;11.344;2022-09-09T09:19:52;4.97;;;1.15;;
25854;SDS011;13680;49.936;11.344;2022-09-09T09:22:19;3.00;;;0.70;;
25854;SDS011;13680;49.936;11.344;2022-09-09T09:25:04;3.08;;;0.70;;
25854;SDS011;13680;49.936;11.344;2022-09-09T09:27:38;3.25;;;0.80;;
25854;SDS011;13680;49.936;11.344;2022-09-09T09:33:08;2.70;;;0.80;;
25854;SDS011;13680;49.936;11.344;2022-09-09T09:35:39;3.95;;;0.80;;
25854;SDS011;13680;49.936;11.344;2022-09-09T09:38:13;2.35;;;0.65;;
25854;SDS011;13680;49.936;11.344;2022-09-09T09:40:57;3.40;;;0.90;;
25854;SDS011;13680;49.936;11.344;2022-09-09T09:43:26;3.05;;;0.98;;
25854;SDS011;13680;49.936;11.344;2022-09-09T09:45:53;3.03;;;0.80;;
25854;SDS011;13680;49.936;11.344;2022-09-09T09:48:19;3.97;;;0.73;;
25854;SDS011;13680;49.936;11.344;2022-09-09T09:50:48;2.53;;;0.80;;
25854;SDS011;13680;49.936;11.344;2022-09-09T09:55:56;5.22;;;0.90;;
25854;SDS011;13680;49.936;11.344;2022-09-09T09:58:24;3.45;;;0.70;;
25854;SDS011;13680;49.936;11.344;2022-09-09T10:00:53;3.70;;;0.80;;
25854;SDS011;13680;49.936;11.344;2022-09-09T10:03:21;3.97;;;0.60;;
25854;SDS011;13680;49.936;11.344;2022-09-09T10:05:48;3.85;;;0.90;;
25854;SDS011;13680;49.936;11.344;2022-09-09T10:08:15;4.63;;;1.02;;
25854;SDS011;13680;49.936;11.344;2022-09-09T10:17:32;3.83;;;0.90;;
25854;SDS011;13680;49.936;11.344;2022-09-09T10:19:38;2.83;;;0.80;;
25854;SDS011;13680;49.936;11.344;2022-09-09T10:22:16;2.65;;;0.90;;
25854;SDS011;13680;49.936;11.344;2022-09-09T10:25:01;5.95;;;1.20;;
25854;SDS011;13680;49.936;11.344;2022-09-09T10:30:19;3.92;;;1.05;;
25854;SDS011;13680;49.936;11.344;2022-09-09T10:35:32;5.88;;;0.82;;
25854;SDS011;13680;49.936;11.344;2022-09-09T10:38:15;2.53;;;1.05;;
25854;SDS011;13680;49.936;11.344;2022-09-09T10:46:19;3.40;;;0.70;;
25854;SDS011;13680;49.936;11.344;2022-09-09T10:57:40;3.83;;;0.90;;
25854;SDS011;13680;49.936;11.344;2022-09-09T11:00:03;3.17;;;0.80;;
25854;SDS011;13680;49.936;11.344;2022-09-09T11:02:31;3.85;;;0.80;;
25854;SDS011;13680;49.936;11.344;2022-09-09T11:07:40;3.28;;;0.75;;
25854;SDS011;13680;49.936;11.344;2022-09-09T11:10:17;3.78;;;1.00;;
25854;SDS011;13680;49.936;11.344;2022-09-09T11:12:50;2.90;;;0.80;;
25854;SDS011;13680;49.936;11.344;2022-09-09T11:16:03;3.70;;;0.82;;
25854;SDS011;13680;49.936;11.344;2022-09-09T11:18:12;2.50;;;0.70;;
25854;SDS011;13680;49.936;11.344;2022-09-09T11:20:43;4.97;;;1.10;;
25854;SDS011;13680;49.936;11.344;2022-09-09T11:23:17;4.22;;;0.63;;
25854;SDS011;13680;49.936;11.344;2022-09-09T11:25:51;2.72;;;1.00;;
25854;SDS011;13680;49.936;11.344;2022-09-09T11:39:36;3.08;;;0.95;;
25854;SDS011;13680;49.936;11.344;2022-09-09T11:42:17;4.40;;;1.08;;
25854;SDS011;13680;49.936;11.344;2022-09-09T11:44:45;4.25;;;0.80;;
25854;SDS011;13680;49.936;11.344;2022-09-09T11:49:51;2.63;;;0.77;;
25854;SDS011;13680;49.936;11.344;2022-09-09T11:54:48;3.00;;;0.80;;
25854;SDS011;13680;49.936;11.344;2022-09-09T11:57:31;4.50;;;0.77;;
25854;SDS011;13680;49.936;11.344;2022-09-09T11:59:59;3.00;;;0.70;;
25854;SDS011;13680;49.936;11.344;2022-09-09T12:02:26;6.05;;;1.27;;
25854;SDS011;13680;49.936;11.344;2022-09-09T12:05:05;2.70;;;0.85;;
25854;SDS011;13680;49.936;11.344;2022-09-09T12:10:32;4.25;;;0.90;;
25854;SDS011;13680;49.936;11.344;2022-09-09T12:18:15;2.85;;;0.88;;
25854;SDS011;13680;49.936;11.344;2022-09-09T12:21:03;3.70;;;0.70;;
25854;SDS011;13680;49.936;11.344;2022-09-09T12:26:28;1.98;;;0.60;;
25854;SDS011;13680;49.936;11.344;2022-09-09T12:31:51;2.25;;;0.50;;
25854;SDS011;13680;49.936;11.344;2022-09-09T12:34:34;3.92;;;0.85;;
25854;SDS011;13680;49.936;11.344;2022-09-09T12:37:51;3.40;;;0.98;;
25854;SDS011;13680;49.936;11.344;2022-09-09T12:40:14;3.03;;;0.80;;
25854;SDS011;13680;49.936;11.344;2022-09-09T12:42:45;3.50;;;1.00;;
25854;SDS011;13680;49.936;11.344;2022-09-09T12:45:20;4.38;;;0.80;;
25854;SDS011;13680;49.936;11.344;2022-09-09T12:50:15;3.25;;;0.88;;
25854;SDS011;13680;49.936;11.344;2022-09-09T12:52:44;1.73;;;0.57;;
25854;SDS011;13680;49.936;11.344;2022-09-09T12:55:18;2.13;;;0.60;;
25854;SDS011;13680;49.936;11.344;2022-09-09T12:57:46;3.45;;;0.52;;
25854;SDS011;13680;49.936;11.344;2022-09-09T13:00:20;3.30;;;0.95;;
25854;SDS011;13680;49.936;11.344;2022-09-09T13:02:55;3.90;;;0.90;;
25854;SDS011;13680;49.936;11.344;2022-09-09T13:05:26;8.55;;;0.90;;
25854;SDS011;13680;49.936;11.344;2022-09-09T13:08:03;2.05;;;0.95;;
25854;SDS011;13680;49.936;11.344;2022-09-09T13:10:39;4.30;;;0.85;;
25854;SDS011;13680;49.936;11.344;2022-09-09T13:13:22;4.72;;;0.98;;
25854;SDS011;13680;49.936;11.344;2022-09-09T13:15:51;3.88;;;0.80;;
25854;SDS011;13680;49.936;11.344;2022-09-09T13:18:20;2.70;;;0.60;;
25854;SDS011;13680;49.936;11.344;2022-09-09T13:20:52;1.95;;;0.47;;
25854;SDS011;13680;49.936;11.344;2022-09-09T13:23:18;5.50;;;1.13;;
25854;SDS011;13680;49.936;11.344;2022-09-09T13:25:59;2.65;;;0.73;;
25854;SDS011;13680;49.936;11.344;2022-09-09T13:28:27;3.05;;;0.60;;
25854;SDS011;13680;49.936;11.344;2022-09-09T13:30:58;4.35;;;0.70;;
25854;SDS011;13680;49.936;11.344;2022-09-09T13:33:32;2.28;;;0.63;;
25854;SDS011;13680;49.936;11.344;2022-09-09T13:36:00;7.07;;;0.82;;
25854;SDS011;13680;49.936;11.344;2022-09-09T13:38:30;5.25;;;0.50;;
25854;SDS011;13680;49.936;11.344;2022-09-09T13:40:58;3.13;;;0.70;;
25854;SDS011;13680;49.936;11.344;2022-09-09T13:43:41;3.33;;;0.47;;
25854;SDS011;13680;49.936;11.344;2022-09-09T13:48:56;2.97;;;0.40;;
25854;SDS011;13680;49.936;11.344;2022-09-09T13:51:29;1.42;;;0.40;;
25854;SDS011;13680;49.936;11.344;2022-09-09T13:53:59;4.68;;;0.55;;
25854;SDS011;13680;49.936;11.344;2022-09-09T13:56:25;1.38;;;0.50;;
25854;SDS011;13680;49.936;11.344;2022-09-09T13:58:51;1.50;;;0.60;;
25854;SDS011;13680;49.936;11.344;2022-09-09T14:01:16;4.97;;;0.50;;
25854;SDS011;13680;49.936;11.344;2022-09-09T14:03:41;3.15;;;0.70;;
25854;SDS011;13680;49.936;11.344;2022-09-09T14:06:08;2.50;;;0.60;;
25854;SDS011;13680;49.936;11.344;2022-09-09T14:08:35;5.80;;;1.15;;
25854;SDS011;13680;49.936;11.344;2022-09-09T14:11:05;2.25;;;0.60;;
25854;SDS011;13680;49.936;11.344;2022-09-09T14:13:31;1.77;;;0.55;;
25854;SDS011;13680;49.936;11.344;2022-09-09T14:15:57;3.53;;;0.63;;
25854;SDS011;13680;49.936;11.344;2022-09-09T14:18:22;1.95;;;0.50;;
25854;SDS011;13680;49.936;11.344;2022-09-09T14:20:48;4.32;;;0.60;;
25854;SDS011;13680;49.936;11.344;2022-09-09T14:23:15;3.90;;;0.80;;
25854;SDS011;13680;49.936;11.344;2022-09-09T14:25:41;2.08;;;0.60;;
25854;SDS011;13680;49.936;11.344;2022-09-09T14:28:09;4.28;;;0.65;;
25854;SDS011;13680;49.936;11.344;2022-09-09T14:30:36;0.88;;;0.40;;
25854;SDS011;13680;49.936;11.344;2022-09-09T14:33:05;3.35;;;0.50;;
25854;SDS011;13680;49.936;11.344;2022-09-09T14:35:32;1.90;;;0.68;;
25854;SDS011;13680;49.936;11.344;2022-09-09T14:37:58;2.00;;;0.50;;
25854;SDS011;13680;49.936;11.344;2022-09-09T14:40:24;1.58;;;0.47;;
25854;SDS011;13680;49.936;11.344;2022-09-09T14:42:49;3.45;;;0.95;;
25854;SDS011;13680;49.936;11.344;2022-09-09T14:45:14;1.17;;;0.40;;
25854;SDS011;13680;49.936;11.344;2022-09-09T14:47:39;2.30;;;0.73;;
25854;SDS011;13680;49.936;11.344;2022-09-09T14:50:05;3.47;;;0.60;;
25854;SDS011;13680;49.936;11.344;2022-09-09T14:52:31;2.13;;;0.50;;
25854;SDS011;13680;49.936;11.344;2022-09-09T14:54:57;2.60;;;0.60;;
25854;SDS011;13680;49.936;11.344;2022-09-09T14:57:22;5.00;;;0.73;;
25854;SDS011;13680;49.936;11.344;2022-09-09T14:59:47;2.70;;;0.60;;
25854;SDS011;13680;49.936;11.344;2022-09-09T15:02:14;2.03;;;0.50;;
25854;SDS011;13680;49.936;11.344;2022-09-09T15:04:39;3.47;;;0.80;;
25854;SDS011;13680;49.936;11.344;2022-09-09T15:07:04;6.65;;;1.20;;
25854;SDS011;13680;49.936;11.344;2022-09-09T15:09:30;3.35;;;0.73;;
25854;SDS011;13680;49.936;11.344;2022-09-09T15:11:55;3.22;;;0.95;;
25854;SDS011;13680;49.936;11.344;2022-09-09T15:14:20;2.70;;;0.60;;
25854;SDS011;13680;49.936;11.344;2022-09-09T15:16:46;3.63;;;0.80;;
25854;SDS011;13680;49.936;11.344;2022-09-09T15:19:11;6.25;;;1.33;;
25854;SDS011;13680;49.936;11.344;2022-09-09T15:21:37;2.50;;;0.68;;
25854;SDS011;13680;49.936;11.344;2022-09-09T15:24:03;3.70;;;0.60;;
25854;SDS011;13680;49.936;11.344;2022-09-09T15:26:29;2.92;;;0.55;;
25854;SDS011;13680;49.936;11.344;2022-09-09T15:28:55;6.25;;;0.70;;
25854;SDS011;13680;49.936;11.344;2022-09-09T15:31:26;4.55;;;0.73;;
25854;SDS011;13680;49.936;11.344;2022-09-09T15:33:54;3.13;;;0.70;;
25854;SDS011;13680;49.936;11.344;2022-09-09T15:36:28;2.38;;;0.60;;
25854;SDS011;13680;49.936;11.344;2022-09-09T15:38:53;1.85;;;0.70;;
25854;SDS011;13680;49.936;11.344;2022-09-09T15:41:20;2.05;;;0.70;;
25854;SDS011;13680;49.936;11.344;2022-09-09T15:43:47;5.35;;;0.90;;
25854;SDS011;13680;49.936;11.344;2022-09-09T15:48:52;1.40;;;0.47;;
25854;SDS011;13680;49.936;11.344;2022-09-09T15:51:19;3.78;;;0.50;;
25854;SDS011;13680;49.936;11.344;2022-09-09T15:53:45;2.75;;;0.70;;
25854;SDS011;13680;49.936;11.344;2022-09-09T15:56:10;2.60;;;0.73;;
25854;SDS011;13680;49.936;11.344;2022-09-09T15:58:37;3.70;;;0.77;;
25854;SDS011;13680;49.936;11.344;2022-09-09T16:01:03;1.95;;;0.50;;
25854;SDS011;13680;49.936;11.344;2022-09-09T16:03:33;1.98;;;0.85;;
25854;SDS011;13680;49.936;11.344;2022-09-09T16:06:03;2.67;;;0.60;;
25854;SDS011;13680;49.936;11.344;2022-09-09T16:08:37;1.85;;;0.70;;
25854;SDS011;13680;49.936;11.344;2022-09-09T16:11:07;2.22;;;0.50;;
25854;SDS011;13680;49.936;11.344;2022-09-09T16:13:38;5.80;;;0.80;;
25854;SDS011;13680;49.936;11.344;2022-09-09T16:16:07;5.28;;;0.73;;
25854;SDS011;13680;49.936;11.344;2022-09-09T16:18:38;5.75;;;0.70;;
25854;SDS011;13680;49.936;11.344;2022-09-09T16:21:15;4.90;;;0.80;;
25854;SDS011;13680;49.936;11.344;2022-09-09T16:23:43;4.28;;;0.70;;
25854;SDS011;13680;49.936;11.344;2022-09-09T16:26:12;4.97;;;0.80;;
25854;SDS011;13680;49.936;11.344;2022-09-09T16:28:39;6.40;;;0.80;;
25854;SDS011;13680;49.936;11.344;2022-09-09T16:31:09;2.50;;;0.68;;
25854;SDS011;13680;49.936;11.344;2022-09-09T16:33:39;2.58;;;0.70;;
25854;SDS011;13680;49.936;11.344;2022-09-09T16:36:05;4.30;;;0.55;;
25854;SDS011;13680;49.936;11.344;2022-09-09T16:38:31;2.72;;;0.50;;
25854;SDS011;13680;49.936;11.344;2022-09-09T16:41:01;1.60;;;0.50;;
25854;SDS011;13680;49.936;11.344;2022-09-09T16:43:31;10.00;;;1.15;;
25854;SDS011;13680;49.936;11.344;2022-09-09T16:45:57;3.60;;;0.80;;
25854;SDS011;13680;49.936;11.344;2022-09-09T16:48:25;2.08;;;0.75;;
25854;SDS011;13680;49.936;11.344;2022-09-09T16:51:07;2.38;;;0.75;;
25854;SDS011;13680;49.936;11.344;2022-09-09T16:53:36;3.50;;;0.98;;
25854;SDS011;13680;49.936;11.344;2022-09-09T16:56:12;3.00;;;0.63;;
25854;SDS011;13680;49.936;11.344;2022-09-09T16:58:39;4.15;;;1.08;;